createdAt,value
2019-05-05T00:02:39.530Z,3.97
2019-05-05T00:05:35.696Z,4.10
2019-05-05T00:08:26.309Z,3.77
2019-05-05T00:11:36.616Z,4.00
2019-05-05T00:14:44.227Z,3.80
2019-05-05T00:17:34.669Z,4.27
2019-05-05T00:20:25.163Z,4.13
2019-05-05T00:23:16.805Z,4.00
2019-05-05T00:26:07.352Z,4.07
2019-05-05T00:28:58.692Z,3.80
2019-05-05T00:31:49.166Z,3.83
2019-05-05T00:34:39.660Z,3.53
2019-05-05T00:37:30.142Z,4.17
2019-05-05T00:40:20.543Z,4.30
2019-05-05T00:43:10.931Z,3.97
2019-05-05T00:46:09.072Z,3.87
2019-05-05T00:48:59.371Z,3.80
2019-05-05T00:51:49.919Z,3.93
2019-05-05T00:54:40.632Z,3.63
2019-05-05T00:57:31.146Z,4.70
2019-05-05T01:00:44.258Z,4.17
2019-05-05T01:03:34.859Z,4.33
2019-05-05T01:06:27.461Z,4.40
2019-05-05T01:09:19.328Z,4.03
2019-05-05T01:12:10.188Z,4.40
2019-05-05T01:15:00.322Z,4.70
2019-05-05T01:17:50.858Z,4.83
2019-05-05T01:20:41.285Z,4.57
2019-05-05T01:23:34.795Z,4.57
2019-05-05T01:26:24.947Z,4.13
2019-05-05T01:29:15.687Z,4.67
2019-05-05T01:32:08.564Z,4.37
2019-05-05T01:34:58.904Z,4.83
2019-05-05T01:37:55.185Z,4.93
2019-05-05T01:41:25.259Z,5.43
2019-05-05T01:44:15.839Z,4.87
2019-05-05T01:47:06.279Z,5.10
2019-05-05T01:49:57.195Z,4.10
2019-05-05T01:52:48.392Z,4.97
2019-05-05T01:55:38.933Z,4.10
2019-05-05T01:58:29.269Z,4.40
2019-05-05T02:01:19.468Z,4.67
2019-05-05T02:04:09.607Z,4.87
2019-05-05T02:07:00.107Z,4.60
2019-05-05T02:09:50.808Z,4.57
2019-05-05T02:12:41.459Z,4.40
2019-05-05T02:15:34.184Z,4.63
2019-05-05T02:18:25.346Z,4.10
2019-05-05T02:21:15.850Z,4.43
2019-05-05T02:24:08.684Z,4.80
2019-05-05T02:26:59.306Z,4.60
2019-05-05T02:29:59.629Z,4.30
2019-05-05T02:32:57.888Z,4.03
2019-05-05T02:35:48.118Z,4.63
2019-05-05T02:38:38.568Z,4.70
2019-05-05T02:41:29.031Z,4.60
2019-05-05T02:44:19.337Z,4.50
2019-05-05T02:47:25.682Z,4.47
2019-05-05T02:50:15.723Z,4.30
2019-05-05T02:53:06.377Z,4.60
2019-05-05T02:55:59.957Z,4.40
2019-05-05T02:58:50.183Z,4.40
2019-05-05T03:01:56.258Z,4.67
2019-05-05T03:04:46.951Z,4.80
2019-05-05T03:07:37.648Z,4.67
2019-05-05T03:10:27.892Z,4.33
2019-05-05T03:13:18.152Z,4.77
2019-05-05T03:16:16.421Z,5.03
2019-05-05T03:19:07.178Z,5.03
2019-05-05T03:21:57.499Z,4.90
2019-05-05T03:24:48.102Z,5.00
2019-05-05T03:27:38.583Z,4.70
2019-05-05T03:30:29.813Z,4.57
2019-05-05T03:33:19.954Z,4.47
2019-05-05T03:36:10.449Z,4.77
2019-05-05T03:39:00.704Z,5.17
2019-05-05T03:42:03.634Z,4.57
2019-05-05T03:45:06.853Z,4.30
2019-05-05T03:47:57.336Z,4.13
2019-05-05T03:50:47.798Z,4.33
2019-05-05T03:53:38.098Z,4.20
2019-05-05T03:56:28.520Z,4.30
2019-05-05T03:59:19.018Z,4.57
2019-05-05T04:02:37.465Z,3.70
2019-05-05T04:05:33.992Z,4.57
2019-05-05T04:08:24.416Z,4.00
2019-05-05T04:11:14.828Z,3.83
2019-05-05T04:14:05.291Z,3.90
2019-05-05T04:17:18.760Z,3.73
2019-05-05T04:20:30.238Z,3.80
2019-05-05T04:23:20.744Z,4.10
2019-05-05T04:26:10.945Z,3.40
2019-05-05T04:29:04.667Z,3.83
2019-05-05T04:31:54.015Z,3.87
2019-05-05T04:34:44.898Z,3.67
2019-05-05T04:37:35.236Z,3.40
2019-05-05T04:40:26.436Z,3.60
2019-05-05T04:43:16.848Z,3.77
2019-05-05T04:46:07.262Z,3.63
2019-05-05T04:49:04.457Z,3.77
2019-05-05T04:51:55.446Z,3.80
2019-05-05T04:54:50.733Z,3.33
2019-05-05T04:57:40.939Z,3.83
2019-05-05T05:00:31.381Z,4.00
2019-05-05T05:03:40.273Z,3.00
2019-05-05T05:06:40.905Z,4.00
2019-05-05T05:09:34.030Z,3.40
2019-05-05T05:12:23.910Z,3.33
2019-05-05T05:15:14.722Z,3.43
2019-05-05T05:18:16.865Z,3.37
2019-05-05T05:21:08.707Z,2.90
2019-05-05T05:23:59.136Z,3.00
2019-05-05T05:26:49.592Z,2.67
2019-05-05T05:29:40.026Z,2.70
2019-05-05T05:32:30.682Z,2.57
2019-05-05T05:35:20.792Z,3.43
2019-05-05T05:38:11.151Z,2.90
2019-05-05T05:41:23.938Z,2.80
2019-05-05T05:44:21.377Z,2.80
2019-05-05T05:47:36.404Z,2.97
2019-05-05T05:50:33.925Z,3.07
2019-05-05T05:53:24.628Z,3.27
2019-05-05T05:56:16.029Z,3.83
2019-05-05T05:59:06.512Z,3.77
2019-05-05T06:02:08.993Z,4.57
2019-05-05T06:04:48.596Z,4.07
2019-05-05T06:07:38.885Z,3.73
2019-05-05T06:10:29.469Z,4.10
2019-05-05T06:13:20.016Z,4.83
2019-05-05T06:16:10.458Z,3.37
2019-05-05T06:19:03.500Z,3.53
2019-05-05T06:21:54.315Z,3.57
2019-05-05T06:24:44.967Z,3.80
2019-05-05T06:27:35.464Z,3.53
2019-05-05T06:30:25.645Z,4.00
2019-05-05T06:33:16.241Z,3.20
2019-05-05T06:36:06.744Z,3.00
2019-05-05T06:38:57.196Z,2.80
2019-05-05T06:42:09.576Z,3.63
2019-05-05T06:45:16.094Z,3.67
2019-05-05T06:48:06.355Z,4.60
2019-05-05T06:50:57.732Z,4.00
2019-05-05T06:53:48.300Z,4.30
2019-05-05T06:56:38.583Z,4.80
2019-05-05T06:59:29.120Z,5.17
2019-05-05T07:02:19.481Z,5.53
2019-05-05T07:05:09.654Z,5.90
2019-05-05T07:08:01.631Z,4.92
2019-05-05T07:10:54.743Z,5.40
2019-05-05T07:13:45.313Z,5.53
2019-05-05T07:16:36.571Z,5.47
2019-05-05T07:19:27.680Z,5.37
2019-05-05T07:22:19.848Z,5.83
2019-05-05T07:25:11.170Z,5.75
2019-05-05T07:28:04.218Z,5.78
2019-05-05T07:30:55.333Z,5.20
2019-05-05T07:33:46.650Z,6.75
2019-05-05T07:36:48.763Z,5.97
2019-05-05T07:39:39.194Z,6.17
2019-05-05T07:42:29.590Z,7.47
2019-05-05T07:45:22.967Z,6.50
2019-05-05T07:48:13.696Z,6.70
2019-05-05T07:51:05.261Z,7.33
2019-05-05T07:53:56.608Z,6.20
2019-05-05T07:56:47.511Z,6.20
2019-05-05T07:59:37.981Z,6.43
2019-05-05T08:02:28.412Z,4.50
2019-05-05T08:05:19.437Z,4.72
2019-05-05T08:08:10.647Z,4.63
2019-05-05T08:11:01.234Z,4.75
2019-05-05T08:13:54.747Z,5.70
2019-05-05T08:17:01.452Z,6.80
2019-05-05T08:19:58.593Z,6.90
2019-05-05T08:22:48.696Z,5.97
2019-05-05T08:25:54.134Z,7.40
2019-05-05T08:28:53.991Z,7.00
2019-05-05T08:31:53.663Z,7.87
2019-05-05T08:34:56.933Z,6.07
2019-05-05T08:37:35.956Z,5.03
2019-05-05T08:40:27.037Z,5.10
2019-05-05T08:43:18.137Z,5.00
2019-05-05T08:46:09.332Z,4.80
2019-05-05T08:49:00.567Z,6.92
2019-05-05T08:51:51.642Z,6.25
2019-05-05T08:54:44.468Z,6.20
2019-05-05T08:57:35.285Z,5.58
2019-05-05T09:00:26.374Z,4.97
2019-05-05T09:03:17.337Z,7.47
2019-05-05T09:06:08.113Z,5.60
2019-05-05T09:08:59.068Z,6.62
2019-05-05T09:11:50.209Z,6.20
2019-05-05T09:14:41.240Z,6.05
2019-05-05T09:17:33.592Z,5.20
2019-05-05T09:20:24.301Z,6.97
2019-05-05T09:23:15.006Z,7.27
2019-05-05T09:26:36.339Z,7.30
2019-05-05T09:29:34.733Z,7.33
2019-05-05T09:32:24.889Z,7.27
2019-05-05T09:35:15.134Z,7.67
2019-05-05T09:38:05.574Z,7.70
2019-05-05T09:40:56.069Z,5.50
2019-05-05T09:43:46.496Z,6.80
2019-05-05T09:46:39.572Z,7.07
2019-05-05T09:49:28.866Z,6.90
2019-05-05T09:52:19.435Z,5.00
2019-05-05T09:55:13.846Z,5.63
2019-05-05T09:58:04.490Z,5.70
2019-05-05T10:00:55.986Z,5.83
2019-05-05T10:03:46.463Z,6.17
2019-05-05T10:06:37.335Z,5.97
2019-05-05T10:09:27.999Z,5.97
2019-05-05T10:12:18.373Z,5.73
2019-05-05T10:15:09.067Z,5.97
2019-05-05T10:17:59.460Z,6.07
2019-05-05T10:20:50.004Z,5.70
2019-05-05T10:23:43.620Z,6.53
2019-05-05T10:26:35.119Z,5.93
2019-05-05T10:29:25.611Z,6.80
2019-05-05T10:32:16.305Z,5.70
2019-05-05T10:35:06.753Z,6.27
2019-05-05T10:37:57.096Z,6.63
2019-05-05T10:40:48.406Z,6.03
2019-05-05T10:43:38.800Z,7.03
2019-05-05T10:46:29.397Z,6.57
2019-05-05T10:49:21.084Z,6.00
2019-05-05T10:52:14.048Z,5.93
2019-05-05T10:55:04.241Z,6.40
2019-05-05T10:57:55.078Z,6.53
2019-05-05T11:00:57.275Z,5.80
2019-05-05T11:03:47.756Z,6.30
2019-05-05T11:06:38.328Z,6.63
2019-05-05T11:09:28.754Z,6.47
2019-05-05T11:12:19.352Z,6.33
2019-05-05T11:15:09.456Z,6.37
2019-05-05T11:17:59.953Z,6.50
2019-05-05T11:20:50.602Z,7.20
2019-05-05T11:23:41.303Z,6.37
2019-05-05T11:26:33.866Z,6.57
2019-05-05T11:29:24.189Z,6.63
2019-05-05T11:32:21.497Z,6.47
2019-05-05T11:35:13.891Z,6.37
2019-05-05T11:38:03.675Z,6.97
2019-05-05T11:40:54.811Z,6.93
2019-05-05T11:43:45.320Z,6.67
2019-05-05T11:46:35.962Z,7.83
2019-05-05T11:49:27.241Z,6.77
2019-05-05T11:52:17.708Z,6.50
2019-05-05T11:55:11.655Z,6.83
2019-05-05T11:58:00.567Z,6.83
2019-05-05T12:00:50.976Z,6.17
2019-05-05T12:03:41.442Z,6.60
2019-05-05T12:06:33.848Z,6.63
2019-05-05T12:09:29.784Z,6.80
2019-05-05T12:12:20.022Z,6.17
2019-05-05T12:15:10.470Z,7.30
2019-05-05T12:18:00.722Z,6.63
2019-05-05T12:20:51.164Z,7.47
2019-05-05T12:23:44.441Z,7.13
2019-05-05T12:26:54.164Z,7.50
2019-05-05T12:29:54.448Z,7.10
2019-05-05T12:32:44.871Z,7.23
2019-05-05T12:35:35.429Z,6.60
2019-05-05T12:38:25.969Z,8.00
2019-05-05T12:41:16.546Z,6.80
2019-05-05T12:44:08.497Z,7.27
2019-05-05T12:47:34.248Z,6.73
2019-05-05T12:50:24.937Z,6.87
2019-05-05T12:53:15.262Z,6.70
2019-05-05T12:56:05.924Z,6.30
2019-05-05T12:58:56.055Z,7.03
2019-05-05T13:01:46.752Z,5.87
2019-05-05T13:04:37.234Z,6.73
2019-05-05T13:07:28.116Z,6.53
2019-05-05T13:10:19.423Z,6.13
2019-05-05T13:13:10.170Z,6.50
2019-05-05T13:16:00.556Z,6.80
2019-05-05T13:18:51.119Z,6.93
2019-05-05T13:22:06.626Z,6.13
2019-05-05T13:25:21.981Z,6.93
2019-05-05T13:28:11.997Z,6.53
2019-05-05T13:31:04.610Z,7.37
2019-05-05T13:33:54.951Z,6.77
2019-05-05T13:36:48.527Z,6.60
2019-05-05T13:39:38.897Z,6.27
2019-05-05T13:42:30.160Z,7.27
2019-05-05T13:45:38.696Z,8.40
2019-05-05T13:48:29.502Z,7.40
2019-05-05T13:51:19.950Z,7.90
2019-05-05T13:54:10.723Z,7.17
2019-05-05T13:57:01.063Z,8.37
2019-05-05T13:59:51.373Z,7.90
2019-05-05T14:02:43.893Z,7.53
2019-05-05T14:05:34.500Z,8.00
2019-05-05T14:08:25.936Z,8.20
2019-05-05T14:11:16.661Z,7.97
2019-05-05T14:14:07.102Z,7.90
2019-05-05T14:16:57.683Z,7.40
2019-05-05T14:20:01.555Z,7.80
2019-05-05T14:22:39.942Z,6.67
2019-05-05T14:25:30.899Z,7.63
2019-05-05T14:28:23.639Z,8.07
2019-05-05T14:31:16.975Z,7.62
2019-05-05T14:34:15.853Z,7.73
2019-05-05T14:37:24.854Z,7.40
2019-05-05T14:40:15.316Z,7.37
2019-05-05T14:43:05.720Z,7.10
2019-05-05T14:45:56.417Z,6.57
2019-05-05T14:48:46.593Z,6.47
2019-05-05T14:51:36.928Z,6.10
2019-05-05T14:54:27.381Z,6.10
2019-05-05T14:57:18.704Z,6.00
2019-05-05T15:00:10.365Z,6.40
2019-05-05T15:03:03.686Z,6.43
2019-05-05T15:06:20.002Z,6.50
2019-05-05T15:09:27.573Z,6.57
2019-05-05T15:12:30.434Z,7.13
2019-05-05T15:15:23.620Z,7.43
2019-05-05T15:18:14.631Z,7.07
2019-05-05T15:21:05.062Z,7.40
2019-05-05T15:23:55.292Z,7.73
2019-05-05T15:26:51.957Z,8.30
2019-05-05T15:29:37.647Z,8.07
2019-05-05T15:32:27.904Z,7.47
2019-05-05T15:35:18.384Z,7.67
2019-05-05T15:38:08.648Z,8.57
2019-05-05T15:40:58.953Z,7.97
2019-05-05T15:43:49.235Z,7.47
2019-05-05T15:46:39.791Z,7.60
2019-05-05T15:49:30.410Z,8.60
2019-05-05T15:52:21.012Z,8.03
2019-05-05T15:55:11.297Z,8.07
2019-05-05T15:58:03.509Z,7.13
2019-05-05T16:00:55.024Z,8.93
2019-05-05T16:03:45.217Z,8.77
2019-05-05T16:06:35.678Z,8.37
2019-05-05T16:09:26.092Z,9.03
2019-05-05T16:12:16.552Z,10.03
2019-05-05T16:15:26.725Z,9.17
2019-05-05T16:18:24.706Z,10.83
2019-05-05T16:21:34.620Z,10.87
2019-05-05T16:24:31.392Z,11.93
2019-05-05T16:27:24.900Z,10.47
2019-05-05T16:30:17.069Z,10.90
2019-05-05T16:33:07.606Z,10.13
2019-05-05T16:35:58.091Z,9.73
2019-05-05T16:38:48.651Z,9.70
2019-05-05T16:41:39.333Z,9.57
2019-05-05T16:44:29.960Z,8.77
2019-05-05T16:47:20.887Z,8.33
2019-05-05T16:50:11.267Z,8.27
2019-05-05T16:53:04.366Z,8.77
2019-05-05T16:55:56.583Z,9.63
2019-05-05T16:58:47.297Z,9.27
2019-05-05T17:01:37.605Z,9.67
2019-05-05T17:04:30.352Z,9.47
2019-05-05T17:07:20.802Z,10.10
2019-05-05T17:10:11.108Z,9.37
2019-05-05T17:13:07.184Z,9.80
2019-05-05T17:16:15.269Z,9.63
2019-05-05T17:19:14.173Z,10.10
2019-05-05T17:22:35.682Z,9.67
2019-05-05T17:25:25.645Z,9.13
2019-05-05T17:28:16.366Z,9.40
2019-05-05T17:31:06.940Z,8.83
2019-05-05T17:33:57.287Z,9.93
2019-05-05T17:36:47.677Z,9.73
2019-05-05T17:39:43.790Z,10.10
2019-05-05T17:42:45.098Z,10.00
2019-05-05T17:45:55.078Z,10.20
2019-05-05T17:49:04.678Z,9.53
2019-05-05T17:52:00.310Z,8.70
2019-05-05T17:54:54.048Z,10.33
2019-05-05T17:57:45.445Z,9.67
2019-05-05T18:00:43.476Z,10.07
2019-05-05T18:03:34.076Z,9.20
2019-05-05T18:06:34.887Z,9.13
2019-05-05T18:09:35.227Z,8.70
2019-05-05T18:12:54.068Z,8.50
2019-05-05T18:15:54.334Z,9.13
2019-05-05T18:18:46.133Z,9.53
2019-05-05T18:21:36.661Z,8.83
2019-05-05T18:24:27.127Z,8.50
2019-05-05T18:27:18.072Z,8.07
2019-05-05T18:30:08.532Z,6.57
2019-05-05T18:32:58.998Z,7.07
2019-05-05T18:35:49.528Z,5.97
2019-05-05T18:38:40.147Z,6.30
2019-05-05T18:41:39.006Z,6.53
2019-05-05T18:44:35.977Z,7.17
2019-05-05T18:47:29.239Z,7.80
2019-05-05T18:50:19.554Z,6.47
2019-05-05T18:53:10.114Z,6.73
2019-05-05T18:56:00.645Z,6.43
2019-05-05T18:58:50.978Z,6.40
2019-05-05T19:01:48.646Z,6.87
2019-05-05T19:04:48.817Z,6.33
2019-05-05T19:07:55.234Z,6.90
2019-05-05T19:10:37.904Z,6.87
2019-05-05T19:13:28.548Z,7.23
2019-05-05T19:16:18.791Z,6.10
2019-05-05T19:19:09.512Z,6.80
2019-05-05T19:22:04.645Z,6.33
2019-05-05T19:24:55.242Z,6.93
2019-05-05T19:27:46.421Z,7.73
2019-05-05T19:30:36.725Z,7.23
2019-05-05T19:33:27.179Z,6.97
2019-05-05T19:36:17.714Z,7.73
2019-05-05T19:39:08.189Z,7.63
2019-05-05T19:42:00.598Z,6.93
2019-05-05T19:44:50.978Z,7.57
2019-05-05T19:47:43.885Z,7.37
2019-05-05T19:50:40.108Z,7.90
2019-05-05T19:53:30.362Z,7.03
2019-05-05T19:56:21.841Z,6.60
2019-05-05T19:59:13.722Z,7.20
2019-05-05T20:02:04.254Z,7.23
2019-05-05T20:04:54.970Z,7.53
2019-05-05T20:07:45.547Z,7.33
2019-05-05T20:10:35.816Z,7.27
2019-05-05T20:13:26.321Z,7.43
2019-05-05T20:16:26.541Z,8.23
2019-05-05T20:19:16.653Z,7.37
2019-05-05T20:22:08.065Z,6.30
2019-05-05T20:24:58.545Z,7.60
2019-05-05T20:27:48.687Z,6.53
2019-05-05T20:30:38.852Z,7.63
2019-05-05T20:33:38.271Z,7.80
2019-05-05T20:36:28.938Z,6.83
2019-05-05T20:39:19.449Z,7.10
2019-05-05T20:42:09.589Z,7.73
2019-05-05T20:44:59.961Z,8.03
2019-05-05T20:47:50.195Z,7.50
2019-05-05T20:50:41.056Z,7.93
2019-05-05T20:53:31.554Z,8.27
2019-05-05T20:56:22.253Z,8.57
2019-05-05T20:59:26.814Z,8.27
2019-05-05T21:02:04.745Z,8.70
2019-05-05T21:04:55.511Z,8.20
2019-05-05T21:07:46.988Z,9.07
2019-05-05T21:10:37.613Z,8.33
2019-05-05T21:13:27.832Z,8.93
2019-05-05T21:16:18.268Z,8.10
2019-05-05T21:19:08.570Z,7.80
2019-05-05T21:22:00.965Z,8.00
2019-05-05T21:24:51.308Z,8.67
2019-05-05T21:27:43.590Z,8.83
2019-05-05T21:30:34.257Z,8.33
2019-05-05T21:33:24.473Z,7.97
2019-05-05T21:36:14.863Z,8.23
2019-05-05T21:39:06.713Z,7.77
2019-05-05T21:41:58.317Z,7.57
2019-05-05T21:44:48.609Z,8.53
2019-05-05T21:47:39.584Z,8.00
2019-05-05T21:50:35.670Z,8.00
2019-05-05T21:53:36.411Z,7.30
2019-05-05T21:56:44.600Z,7.63
2019-05-05T21:59:35.055Z,7.00
2019-05-05T22:02:25.646Z,7.17
2019-05-05T22:05:15.917Z,7.80
2019-05-05T22:08:06.324Z,6.80
2019-05-05T22:10:56.659Z,6.67
2019-05-05T22:13:46.876Z,6.50
2019-05-05T22:16:37.499Z,7.37
2019-05-05T22:19:29.587Z,7.53
2019-05-05T22:22:21.486Z,8.50
2019-05-05T22:25:11.452Z,6.83
2019-05-05T22:28:04.142Z,8.17
2019-05-05T22:30:55.557Z,8.33
2019-05-05T22:33:46.034Z,8.10
2019-05-05T22:36:36.530Z,8.77
2019-05-05T22:39:27.747Z,6.83
2019-05-05T22:42:18.368Z,8.87
2019-05-05T22:45:09.367Z,8.70
2019-05-05T22:47:59.966Z,8.20
2019-05-05T22:50:50.513Z,7.80
2019-05-05T22:53:40.943Z,9.00
2019-05-05T22:56:33.744Z,8.43
2019-05-05T22:59:26.146Z,8.77
2019-05-05T23:02:17.760Z,8.00
2019-05-05T23:05:25.119Z,8.63
2019-05-05T23:08:18.398Z,8.33
2019-05-05T23:11:07.463Z,8.43
2019-05-05T23:14:16.843Z,8.13
2019-05-05T23:17:34.025Z,7.87
2019-05-05T23:20:54.697Z,8.07
2019-05-05T23:24:14.179Z,8.03
2019-05-05T23:27:04.814Z,7.40
2019-05-05T23:29:55.211Z,8.33
2019-05-05T23:32:45.962Z,9.23
2019-05-05T23:35:36.382Z,6.97
2019-05-05T23:38:26.829Z,7.03
2019-05-05T23:41:17.324Z,8.57
2019-05-05T23:44:07.904Z,7.80
2019-05-05T23:46:58.285Z,8.80
2019-05-05T23:49:48.810Z,8.87
2019-05-05T23:52:39.112Z,5.43
2019-05-05T23:55:29.692Z,3.40
2019-05-05T23:58:21.074Z,4.37
